Home   Weather   India   Dharamshala   Past weeks
Flag for India

Past Weather in Dharamshala, Himachal Pradesh, India — Yesterday and Last 2 Weeks

Currently: 70 °F. Scattered clouds. (Weather station: Amritsar Airport, India). See more current weather

Past Weather in Dharamshala — Graph

°F

Dharamshala Temperature Yesterday

Maximum temperature yesterday: 75 °F (at 1:00 pm)
Minimum temperature yesterday: 46 °F (at 6:30 am)
Average temperature yesterday: 59 °F

High & Low Weather Summary for the Past Weeks

 TemperatureHumidityPressure
High81 °F (Nov 24, 3:00 pm)100% (Nov 27, 3:00 am)30.12 "Hg (Nov 27, 3:00 am)
Low43 °F (Dec 6, 7:30 am)23% (Nov 24, 3:00 pm)29.86 "Hg (Nov 27, 3:00 am)
Average60 °F77%30.00 "Hg
* Reported Nov 24 11:30 am — Dec 9 11:30 am, Dharamshala. Weather by CustomWeather, © 2022

Note: Actual official high and low records may vary slightly from our data, if they occured in-between our weather recording intervals... More about our weather records

Dharamshala Weather History for the Previous 24 Hours

Scroll right to see more
 ConditionsComfort  
Time TempWeatherWind HumidityBarometerVisibility
11:30 am
Fri, Dec 9
70 °FScattered clouds.2 mph69%30.04 "Hg2 mi
11:00 am68 °FScattered clouds.2 mph73%30.07 "Hg2 mi
10:30 am64 °FScattered clouds.6 mph73%30.07 "Hg1 mi
10:00 am63 °FFog.3 mph83%30.04 "Hg1 mi
9:30 am59 °FFog.1 mph88%30.04 "Hg1 mi
9:00 am55 °FFog.5 mph94%30.04 "Hg1 mi
8:30 am54 °FFog.No wind94%30.04 "Hg1 mi
8:00 am50 °FFog.No wind100%30.01 "Hg1 mi
7:30 am50 °FFog.No wind94%30.01 "Hg1 mi
7:00 am50 °FFog.7 mph94%29.98 "Hg1 mi
6:30 am50 °FFog.5 mph94%29.98 "Hg1 mi
5:00 am52 °FFog.No wind94%29.98 "Hg1 mi
4:30 am52 °FFog.No wind94%29.98 "Hg1 mi
3:30 am52 °FFog.2 mph94%30.01 "Hg1 mi
2:30 am52 °FFog.No wind94%30.01 "Hg1 mi
2:00 am52 °FFog.No wind94%30.01 "Hg1 mi
1:00 am54 °FFog.No wind94%30.01 "Hg1 mi
12:30 am54 °FFog.No wind94%30.01 "Hg1 mi
11:30 pm
Thu, Dec 8
55 °FFog.No wind88%30.01 "Hg1 mi
11:00 pm54 °FFog.2 mph94%30.01 "Hg1 mi
10:30 pm54 °FFog.No wind94%30.01 "Hg1 mi
9:30 pm55 °FFog.2 mph94%30.01 "Hg1 mi
9:00 pm55 °FFog.No wind88%30.01 "Hg1 mi
8:30 pm57 °FFog.2 mph88%30.01 "Hg1 mi
7:30 pm63 °FFog.2 mph77%29.98 "Hg1 mi
7:00 pm61 °FFog.2 mph83%29.98 "Hg1 mi
6:30 pm64 °FPartly cloudy.5 mph78%29.98 "Hg1 mi
5:30 pm70 °FBroken clouds.3 mph46%29.98 "Hg2 mi
5:00 pm72 °FBroken clouds.2 mph41%29.98 "Hg2 mi
4:00 pm73 °FBroken clouds.6 mph38%30.01 "Hg2 mi
3:30 pm73 °FBroken clouds.5 mph38%30.01 "Hg2 mi
3:00 pm73 °FBroken clouds.7 mph36%30.01 "Hg2 mi
2:30 pm73 °FBroken clouds.5 mph36%30.04 "Hg2 mi
2:00 pm73 °FBroken clouds.6 mph31%30.04 "Hg2 mi
1:30 pm73 °FBroken clouds.5 mph27%30.04 "Hg2 mi
1:00 pm75 °FScattered clouds.5 mph27%30.04 "Hg2 mi
12:30 pm73 °FScattered clouds.5 mph29%30.07 "Hg2 mi
Weather by CustomWeather, © 2022

See weather overview